createdAt,value
2018-04-13T00:00:22.334Z,970.03
2018-04-13T00:01:22.269Z,969.99
2018-04-13T00:02:22.263Z,969.97
2018-04-13T00:03:22.208Z,969.97
2018-04-13T00:04:22.171Z,969.97
2018-04-13T00:05:22.153Z,969.99
2018-04-13T00:06:22.120Z,969.97
2018-04-13T00:07:22.052Z,969.97
2018-04-13T00:08:22.029Z,969.98
2018-04-13T00:09:21.988Z,969.93
2018-04-13T00:10:21.946Z,969.94
2018-04-13T00:11:21.928Z,969.93
2018-04-13T00:12:21.894Z,969.92
2018-04-13T00:13:21.825Z,969.95
2018-04-13T00:14:21.810Z,969.93
2018-04-13T00:15:21.813Z,969.96
2018-04-13T00:16:21.709Z,969.92
2018-04-13T00:17:21.731Z,969.92
2018-04-13T00:18:21.780Z,969.93
2018-04-13T00:19:21.615Z,969.93
2018-04-13T00:20:21.568Z,969.97
2018-04-13T00:21:21.550Z,969.97
2018-04-13T00:22:21.501Z,969.97
2018-04-13T00:23:21.493Z,969.97
2018-04-13T00:24:21.450Z,969.95
2018-04-13T00:25:21.597Z,969.96
2018-04-13T00:26:21.359Z,969.97
2018-04-13T00:27:21.336Z,969.99
2018-04-13T00:28:21.307Z,969.94
2018-04-13T00:29:21.245Z,969.98
2018-04-13T00:30:21.238Z,969.96
2018-04-13T00:31:21.172Z,970.00
2018-04-13T00:32:21.153Z,969.98
2018-04-13T00:33:21.124Z,970.00
2018-04-13T00:34:21.067Z,970.01
2018-04-13T00:35:21.049Z,969.98
2018-04-13T00:36:20.991Z,970.03
2018-04-13T00:37:20.978Z,970.04
2018-04-13T00:38:20.930Z,970.01
2018-04-13T00:39:20.883Z,969.95
2018-04-13T00:40:20.871Z,969.98
2018-04-13T00:41:20.858Z,970.03
2018-04-13T00:42:20.779Z,970.03
2018-04-13T00:43:20.752Z,970.00
2018-04-13T00:44:21.652Z,969.99
2018-04-13T00:45:20.699Z,969.99
2018-04-13T00:46:20.638Z,969.98
2018-04-13T00:47:20.584Z,969.97
2018-04-13T00:48:20.573Z,969.97
2018-04-13T00:49:20.532Z,969.96
2018-04-13T00:50:20.501Z,969.99
2018-04-13T00:51:20.490Z,969.96
2018-04-13T00:52:20.406Z,970.02
2018-04-13T00:53:20.375Z,970.00
2018-04-13T00:54:20.345Z,970.04
2018-04-13T00:55:20.278Z,970.03
2018-04-13T00:56:20.323Z,970.05
2018-04-13T00:57:20.217Z,970.03
2018-04-13T00:58:20.185Z,970.00
2018-04-13T00:59:20.145Z,969.98
2018-04-13T01:00:20.106Z,969.97
2018-04-13T01:01:20.092Z,969.92
2018-04-13T01:02:20.038Z,969.91
2018-04-13T01:03:20.173Z,969.91
2018-04-13T01:04:19.964Z,969.89
2018-04-13T01:05:19.943Z,969.85
2018-04-13T01:06:19.929Z,969.85
2018-04-13T01:07:19.864Z,969.88
2018-04-13T01:08:19.834Z,969.85
2018-04-13T01:09:19.774Z,969.87
2018-04-13T01:10:19.765Z,969.83
2018-04-13T01:11:19.703Z,969.87
2018-04-13T01:12:19.654Z,969.80
2018-04-13T01:13:19.626Z,969.84
2018-04-13T01:14:19.600Z,969.83
2018-04-13T01:15:19.608Z,969.83
2018-04-13T01:16:19.547Z,969.78
2018-04-13T01:17:19.487Z,969.79
2018-04-13T01:18:19.503Z,969.76
2018-04-13T01:19:19.409Z,969.78
2018-04-13T01:20:19.372Z,969.74
2018-04-13T01:21:19.317Z,969.72
2018-04-13T01:22:19.317Z,969.76
2018-04-13T01:23:19.265Z,969.71
2018-04-13T01:24:19.316Z,969.71
2018-04-13T01:25:19.252Z,969.73
2018-04-13T01:26:19.165Z,969.75
2018-04-13T01:27:19.145Z,969.75
2018-04-13T01:28:19.078Z,969.76
2018-04-13T01:29:19.042Z,969.74
2018-04-13T01:30:19.007Z,969.71
2018-04-13T01:31:18.972Z,969.70
2018-04-13T01:32:18.963Z,969.74
2018-04-13T01:33:18.937Z,969.73
2018-04-13T01:34:18.886Z,969.71
2018-04-13T01:35:18.825Z,969.70
2018-04-13T01:36:18.813Z,969.69
2018-04-13T01:37:18.757Z,969.65
2018-04-13T01:38:18.715Z,969.62
2018-04-13T01:39:18.683Z,969.59
2018-04-13T01:40:18.667Z,969.58
2018-04-13T01:41:18.616Z,969.59
2018-04-13T01:42:18.583Z,969.58
2018-04-13T01:43:18.542Z,969.55
2018-04-13T01:44:18.501Z,969.53
2018-04-13T01:45:18.464Z,969.53
2018-04-13T01:46:18.404Z,969.54
2018-04-13T01:47:18.370Z,969.56
2018-04-13T01:48:18.330Z,969.54
2018-04-13T01:49:18.328Z,969.60
2018-04-13T01:50:18.279Z,969.56
2018-04-13T01:51:18.221Z,969.59
2018-04-13T01:52:18.187Z,969.61
2018-04-13T01:53:18.210Z,969.60
2018-04-13T01:54:18.124Z,969.60
2018-04-13T01:55:18.192Z,969.59
2018-04-13T01:56:18.043Z,969.61
2018-04-13T01:57:18.041Z,969.56
2018-04-13T01:58:18.006Z,969.58
2018-04-13T01:59:17.947Z,969.55
2018-04-13T02:00:17.897Z,969.56
2018-04-13T02:01:17.848Z,969.59
2018-04-13T02:02:17.813Z,969.60
2018-04-13T02:03:17.803Z,969.58
2018-04-13T02:04:17.752Z,969.65
2018-04-13T02:05:17.710Z,969.63
2018-04-13T02:06:17.688Z,969.66
2018-04-13T02:07:17.684Z,969.69
2018-04-13T02:08:17.596Z,969.71
2018-04-13T02:09:17.592Z,969.69
2018-04-13T02:10:17.526Z,969.74
2018-04-13T02:11:17.521Z,969.78
2018-04-13T02:12:17.479Z,969.77
2018-04-13T02:13:17.425Z,969.75
2018-04-13T02:14:17.428Z,969.73
2018-04-13T02:15:17.378Z,969.72
2018-04-13T02:16:17.303Z,969.71
2018-04-13T02:17:17.312Z,969.69
2018-04-13T02:18:17.246Z,969.69
2018-04-13T02:19:17.201Z,969.64
2018-04-13T02:20:17.143Z,969.63
2018-04-13T02:21:17.105Z,969.68
2018-04-13T02:22:17.121Z,969.69
2018-04-13T02:23:17.048Z,969.72
2018-04-13T02:24:17.007Z,969.74
2018-04-13T02:25:16.960Z,969.74
2018-04-13T02:26:16.905Z,969.73
2018-04-13T02:27:16.870Z,969.73
2018-04-13T02:28:16.857Z,969.77
2018-04-13T02:29:16.801Z,969.77
2018-04-13T02:30:17.633Z,969.80
2018-04-13T02:31:16.721Z,969.82
2018-04-13T02:32:16.706Z,969.77
2018-04-13T02:33:16.669Z,969.78
2018-04-13T02:34:16.703Z,969.74
2018-04-13T02:35:16.617Z,969.73
2018-04-13T02:36:16.547Z,969.72
2018-04-13T02:37:16.522Z,969.72
2018-04-13T02:38:16.478Z,969.72
2018-04-13T02:39:16.450Z,969.72
2018-04-13T02:40:16.414Z,969.76
2018-04-13T02:41:16.350Z,969.73
2018-04-13T02:42:16.328Z,969.71
2018-04-13T02:43:16.296Z,969.74
2018-04-13T02:44:16.240Z,969.75
2018-04-13T02:45:16.199Z,969.77
2018-04-13T02:46:16.172Z,969.76
2018-04-13T02:47:16.120Z,969.78
2018-04-13T02:48:16.097Z,969.79
2018-04-13T02:49:16.074Z,969.82
2018-04-13T02:50:16.071Z,969.82
2018-04-13T02:51:15.988Z,969.85
2018-04-13T02:52:15.929Z,969.94
2018-04-13T02:53:15.903Z,969.96
2018-04-13T02:54:15.850Z,970.03
2018-04-13T02:55:15.828Z,970.15
2018-04-13T02:56:15.794Z,970.17
2018-04-13T02:57:15.737Z,970.20
2018-04-13T02:58:15.736Z,970.26
2018-04-13T02:59:15.676Z,970.27
2018-04-13T03:00:15.638Z,970.33
2018-04-13T03:01:15.570Z,970.28
2018-04-13T03:02:15.583Z,970.27
2018-04-13T03:03:15.497Z,970.26
2018-04-13T03:04:15.482Z,970.22
2018-04-13T03:05:15.427Z,970.25
2018-04-13T03:06:15.399Z,970.28
2018-04-13T03:07:15.355Z,970.25
2018-04-13T03:08:15.318Z,970.27
2018-04-13T03:09:15.282Z,970.29
2018-04-13T03:10:15.222Z,970.24
2018-04-13T03:11:15.223Z,970.26
2018-04-13T03:12:15.157Z,970.26
2018-04-13T03:13:15.145Z,970.24
2018-04-13T03:14:15.086Z,970.27
2018-04-13T03:15:15.099Z,970.29
2018-04-13T03:16:15.028Z,970.25
2018-04-13T03:17:14.965Z,970.29
2018-04-13T03:18:14.970Z,970.22
2018-04-13T03:19:14.890Z,970.24
2018-04-13T03:20:14.879Z,970.25
2018-04-13T03:21:14.820Z,970.23
2018-04-13T03:22:14.772Z,970.28
2018-04-13T03:23:14.793Z,970.25
2018-04-13T03:24:14.708Z,970.30
2018-04-13T03:25:14.661Z,970.27
2018-04-13T03:26:14.626Z,970.29
2018-04-13T03:27:14.583Z,970.26
2018-04-13T03:28:14.532Z,970.32
2018-04-13T03:29:14.511Z,970.30
2018-04-13T03:30:14.448Z,970.28
2018-04-13T03:31:14.446Z,970.28
2018-04-13T03:32:14.397Z,970.24
2018-04-13T03:33:14.356Z,970.22
2018-04-13T03:34:14.362Z,970.19
2018-04-13T03:35:14.263Z,970.22
2018-04-13T03:36:14.252Z,970.21
2018-04-13T03:37:14.211Z,970.22
2018-04-13T03:38:14.164Z,970.26
2018-04-13T03:39:14.120Z,970.26
2018-04-13T03:40:14.080Z,970.31
2018-04-13T03:41:14.060Z,970.34
2018-04-13T03:42:14.008Z,970.32
2018-04-13T03:43:13.960Z,970.30
2018-04-13T03:44:13.932Z,970.34
2018-04-13T03:45:13.889Z,970.32
2018-04-13T03:46:13.884Z,970.37
2018-04-13T03:47:13.818Z,970.40
2018-04-13T03:48:13.791Z,970.33
2018-04-13T03:49:13.747Z,970.36
2018-04-13T03:50:13.709Z,970.33
2018-04-13T03:51:13.667Z,970.33
2018-04-13T03:52:13.603Z,970.34
2018-04-13T03:53:13.620Z,970.33
2018-04-13T03:54:13.657Z,970.30
2018-04-13T03:55:13.491Z,970.31
2018-04-13T03:56:13.453Z,970.30
2018-04-13T03:57:13.422Z,970.27
2018-04-13T03:58:13.386Z,970.36
2018-04-13T03:59:13.384Z,970.31
2018-04-13T04:00:13.286Z,970.31
2018-04-13T04:01:13.285Z,970.32
2018-04-13T04:02:13.264Z,970.29
2018-04-13T04:03:13.206Z,970.32
2018-04-13T04:04:13.141Z,970.29
2018-04-13T04:05:13.151Z,970.29
2018-04-13T04:06:13.080Z,970.26
2018-04-13T04:07:13.065Z,970.26
2018-04-13T04:08:12.996Z,970.28
2018-04-13T04:09:12.948Z,970.28
2018-04-13T04:10:12.922Z,970.30
2018-04-13T04:11:12.898Z,970.29
2018-04-13T04:12:12.860Z,970.30
2018-04-13T04:13:12.801Z,970.30
2018-04-13T04:14:12.775Z,970.29
2018-04-13T04:15:12.734Z,970.30
2018-04-13T04:16:12.729Z,970.33
2018-04-13T04:17:12.658Z,970.36
2018-04-13T04:18:12.597Z,970.33
2018-04-13T04:19:12.585Z,970.37
2018-04-13T04:20:12.516Z,970.40
2018-04-13T04:21:12.506Z,970.41
2018-04-13T04:22:12.453Z,970.47
2018-04-13T04:23:12.412Z,970.47
2018-04-13T04:24:12.419Z,970.49
2018-04-13T04:25:12.356Z,970.53
2018-04-13T04:26:12.305Z,970.54
2018-04-13T04:27:12.260Z,970.53
2018-04-13T04:28:12.197Z,970.57
2018-04-13T04:29:12.181Z,970.58
2018-04-13T04:30:12.127Z,970.60
2018-04-13T04:31:12.093Z,970.64
2018-04-13T04:32:12.100Z,970.60
2018-04-13T04:33:12.033Z,970.62
2018-04-13T04:34:11.982Z,970.67
2018-04-13T04:35:11.941Z,970.67
2018-04-13T04:36:11.925Z,970.70
2018-04-13T04:37:11.867Z,970.70
2018-04-13T04:38:11.823Z,970.70
2018-04-13T04:39:11.790Z,970.69
2018-04-13T04:40:11.735Z,970.69
2018-04-13T04:41:11.727Z,970.70
2018-04-13T04:42:11.673Z,970.70
2018-04-13T04:43:11.644Z,970.65
2018-04-13T04:44:11.600Z,970.63
2018-04-13T04:45:11.558Z,970.61
2018-04-13T04:46:11.513Z,970.62
2018-04-13T04:47:11.522Z,970.59
2018-04-13T04:48:11.430Z,970.63
2018-04-13T04:49:11.384Z,970.64
2018-04-13T04:50:11.388Z,970.63
2018-04-13T04:51:11.350Z,970.62
2018-04-13T04:52:11.291Z,970.65
2018-04-13T04:53:11.270Z,970.61
2018-04-13T04:54:11.219Z,970.59
2018-04-13T04:55:11.178Z,970.59
2018-04-13T04:56:11.147Z,970.59
2018-04-13T04:57:11.083Z,970.58
2018-04-13T04:58:11.056Z,970.60
2018-04-13T04:59:11.016Z,970.60
2018-04-13T05:00:10.966Z,970.59
2018-04-13T05:01:10.960Z,970.54
2018-04-13T05:02:10.897Z,970.54
2018-04-13T05:03:10.840Z,970.54
2018-04-13T05:04:10.809Z,970.54
2018-04-13T05:05:10.780Z,970.51
2018-04-13T05:06:10.756Z,970.54
2018-04-13T05:07:10.689Z,970.58
2018-04-13T05:08:10.651Z,970.59
2018-04-13T05:09:10.631Z,970.65
2018-04-13T05:10:10.572Z,970.66
2018-04-13T05:11:10.540Z,970.63
2018-04-13T05:12:10.502Z,970.59
2018-04-13T05:13:10.465Z,970.58
2018-04-13T05:14:10.443Z,970.57
2018-04-13T05:15:10.403Z,970.55
2018-04-13T05:16:10.358Z,970.56
2018-04-13T05:17:10.318Z,970.54
2018-04-13T05:18:10.300Z,970.58
2018-04-13T05:19:10.228Z,970.59
2018-04-13T05:20:10.190Z,970.59
2018-04-13T05:21:10.179Z,970.60
2018-04-13T05:22:10.114Z,970.65
2018-04-13T05:23:10.086Z,970.70
2018-04-13T05:24:10.056Z,970.70
2018-04-13T05:25:10.019Z,970.73
2018-04-13T05:26:09.988Z,970.76
2018-04-13T05:27:09.951Z,970.82
2018-04-13T05:28:09.903Z,970.80
2018-04-13T05:29:09.890Z,970.77
2018-04-13T05:30:09.806Z,970.80
2018-04-13T05:31:09.790Z,970.74
2018-04-13T05:32:09.739Z,970.77
2018-04-13T05:33:09.693Z,970.74
2018-04-13T05:34:09.662Z,970.73
2018-04-13T05:35:09.638Z,970.75
2018-04-13T05:36:09.629Z,970.74
2018-04-13T05:37:09.543Z,970.73
2018-04-13T05:38:09.520Z,970.77
2018-04-13T05:39:10.177Z,970.70
2018-04-13T05:40:09.419Z,970.71
2018-04-13T05:41:09.386Z,970.69
2018-04-13T05:42:09.359Z,970.72
2018-04-13T05:43:09.315Z,970.70
2018-04-13T05:44:09.311Z,970.72
2018-04-13T05:45:09.252Z,970.71
2018-04-13T05:46:09.260Z,970.71
2018-04-13T05:47:09.161Z,970.77
2018-04-13T05:48:09.122Z,970.76
2018-04-13T05:49:09.113Z,970.84
2018-04-13T05:50:09.075Z,970.85
2018-04-13T05:51:09.009Z,970.85
2018-04-13T05:52:08.977Z,970.82
2018-04-13T05:53:08.955Z,970.80
2018-04-13T05:54:08.909Z,970.78
2018-04-13T05:55:08.880Z,970.75
2018-04-13T05:56:08.841Z,970.79
2018-04-13T05:57:08.793Z,970.77
2018-04-13T05:58:08.767Z,970.77
2018-04-13T05:59:08.714Z,970.77
2018-04-13T06:00:08.737Z,970.81
2018-04-13T06:01:08.630Z,970.77
2018-04-13T06:02:08.595Z,970.81
2018-04-13T06:03:08.569Z,970.83
2018-04-13T06:04:08.543Z,970.82
2018-04-13T06:05:08.472Z,970.80
2018-04-13T06:06:08.524Z,970.85
2018-04-13T06:07:08.415Z,970.83
2018-04-13T06:08:08.366Z,970.83
2018-04-13T06:09:08.329Z,970.82
2018-04-13T06:10:08.324Z,970.81
2018-04-13T06:11:08.274Z,970.77
2018-04-13T06:12:08.240Z,970.76
2018-04-13T06:13:08.167Z,970.82
2018-04-13T06:14:08.143Z,970.82
2018-04-13T06:15:08.111Z,970.82
2018-04-13T06:16:08.065Z,970.80
2018-04-13T06:17:08.026Z,970.81
2018-04-13T06:18:07.995Z,970.87
2018-04-13T06:19:07.967Z,970.89
2018-04-13T06:20:07.928Z,970.92
2018-04-13T06:21:07.868Z,970.94
2018-04-13T06:22:07.860Z,970.96
2018-04-13T06:23:07.843Z,970.92
2018-04-13T06:24:07.755Z,970.95
2018-04-13T06:25:07.735Z,970.97
2018-04-13T06:26:07.716Z,970.98
2018-04-13T06:27:07.661Z,970.99
2018-04-13T06:28:07.636Z,971.06
2018-04-13T06:29:07.626Z,971.10
2018-04-13T06:30:07.567Z,971.09
2018-04-13T06:31:07.529Z,971.12
2018-04-13T06:32:07.459Z,971.12
2018-04-13T06:33:07.492Z,971.16
2018-04-13T06:34:07.443Z,971.13
2018-04-13T06:35:07.364Z,971.15
2018-04-13T06:36:07.334Z,971.17
2018-04-13T06:37:07.332Z,971.20
2018-04-13T06:38:07.272Z,971.21
2018-04-13T06:39:07.231Z,971.23
2018-04-13T06:40:07.185Z,971.24
2018-04-13T06:41:07.227Z,971.21
2018-04-13T06:42:07.112Z,971.24
2018-04-13T06:43:07.086Z,971.27
2018-04-13T06:44:07.036Z,971.27
2018-04-13T06:45:07.027Z,971.31
2018-04-13T06:46:06.972Z,971.35
2018-04-13T06:47:06.934Z,971.35
2018-04-13T06:48:06.906Z,971.34
2018-04-13T06:49:06.842Z,971.30
2018-04-13T06:50:06.849Z,971.32
2018-04-13T06:51:06.782Z,971.34
2018-04-13T06:52:06.783Z,971.37
2018-04-13T06:53:06.712Z,971.39
2018-04-13T06:54:06.666Z,971.37
2018-04-13T06:55:06.663Z,971.41
2018-04-13T06:56:06.660Z,971.38
2018-04-13T06:57:06.599Z,971.38
2018-04-13T06:58:06.543Z,971.36
2018-04-13T06:59:06.520Z,971.30
2018-04-13T07:00:06.464Z,971.28
2018-04-13T07:01:06.428Z,971.30
2018-04-13T07:02:06.398Z,971.28
2018-04-13T07:03:06.334Z,971.30
2018-04-13T07:04:06.331Z,971.30
2018-04-13T07:05:06.288Z,971.31
2018-04-13T07:06:06.260Z,971.30
2018-04-13T07:07:06.226Z,971.32
2018-04-13T07:08:06.197Z,971.33
2018-04-13T07:09:06.193Z,971.35
2018-04-13T07:10:06.109Z,971.35
2018-04-13T07:11:06.090Z,971.32
2018-04-13T07:12:06.022Z,971.34
2018-04-13T07:13:06.004Z,971.31
2018-04-13T07:14:05.960Z,971.31
2018-04-13T07:15:05.941Z,971.36
2018-04-13T07:16:05.902Z,971.33
2018-04-13T07:17:05.859Z,971.33
2018-04-13T07:18:05.848Z,971.31
2018-04-13T07:19:05.808Z,971.34
2018-04-13T07:20:05.788Z,971.38
2018-04-13T07:21:05.718Z,971.40
2018-04-13T07:22:05.665Z,971.44
2018-04-13T07:23:05.669Z,971.43
2018-04-13T07:24:05.634Z,971.43
2018-04-13T07:25:05.606Z,971.42
2018-04-13T07:26:05.569Z,971.43
2018-04-13T07:27:05.496Z,971.36
2018-04-13T07:28:05.471Z,971.31
2018-04-13T07:29:05.447Z,971.33
2018-04-13T07:30:05.452Z,971.31
2018-04-13T07:31:05.383Z,971.39
2018-04-13T07:32:05.736Z,971.37
2018-04-13T07:33:05.291Z,971.39
2018-04-13T07:34:05.281Z,971.38
2018-04-13T07:35:05.450Z,971.35
2018-04-13T07:36:05.202Z,971.36
2018-04-13T07:37:05.159Z,971.34
2018-04-13T07:38:05.120Z,971.35
2018-04-13T07:39:05.085Z,971.33
2018-04-13T07:40:05.067Z,971.33
2018-04-13T07:41:05.016Z,971.34
2018-04-13T07:42:05.005Z,971.38
2018-04-13T07:43:04.956Z,971.42
2018-04-13T07:44:04.928Z,971.44
2018-04-13T07:45:04.919Z,971.43
2018-04-13T07:46:05.149Z,971.41
2018-04-13T07:47:04.810Z,971.42
2018-04-13T07:48:04.777Z,971.44
2018-04-13T07:49:04.743Z,971.46
2018-04-13T07:50:04.730Z,971.47
2018-04-13T07:51:04.666Z,971.48
2018-04-13T07:52:04.636Z,971.45
2018-04-13T07:53:04.641Z,971.49
2018-04-13T07:54:04.571Z,971.51
2018-04-13T07:55:04.550Z,971.48
2018-04-13T07:56:04.508Z,971.50
2018-04-13T07:57:04.459Z,971.46
2018-04-13T07:58:04.443Z,971.47
2018-04-13T07:59:04.411Z,971.42
2018-04-13T08:00:04.372Z,971.41
2018-04-13T08:01:04.363Z,971.39
2018-04-13T08:02:04.560Z,971.41
2018-04-13T08:03:04.277Z,971.44
2018-04-13T08:04:04.246Z,971.47
2018-04-13T08:05:04.169Z,971.51
2018-04-13T08:06:04.143Z,971.49
2018-04-13T08:07:04.173Z,971.50
2018-04-13T08:08:04.101Z,971.51
2018-04-13T08:09:04.096Z,971.52
2018-04-13T08:10:04.289Z,971.55
2018-04-13T08:11:03.974Z,971.54
2018-04-13T08:12:03.951Z,971.56
2018-04-13T08:13:03.916Z,971.52
2018-04-13T08:14:03.917Z,971.54
2018-04-13T08:15:03.877Z,971.53
2018-04-13T08:16:03.829Z,971.51
2018-04-13T08:17:03.791Z,971.51
2018-04-13T08:18:03.774Z,971.48
2018-04-13T08:19:03.703Z,971.51
2018-04-13T08:20:03.669Z,971.55
2018-04-13T08:21:03.627Z,971.52
2018-04-13T08:22:03.612Z,971.55
2018-04-13T08:23:03.590Z,971.54
2018-04-13T08:24:03.540Z,971.54
2018-04-13T08:25:03.520Z,971.55
2018-04-13T08:26:03.518Z,971.56
2018-04-13T08:27:03.450Z,971.54
2018-04-13T08:28:03.441Z,971.58
2018-04-13T08:29:03.393Z,971.60
2018-04-13T08:30:03.389Z,971.63
2018-04-13T08:31:03.319Z,971.64
2018-04-13T08:32:03.297Z,971.66
2018-04-13T08:33:03.263Z,971.67
2018-04-13T08:34:03.243Z,971.70
2018-04-13T08:35:03.190Z,971.73
2018-04-13T08:36:03.142Z,971.71
2018-04-13T08:37:03.142Z,971.73
2018-04-13T08:38:03.080Z,971.76
2018-04-13T08:39:03.055Z,971.79
2018-04-13T08:40:03.022Z,971.83
2018-04-13T08:41:02.985Z,971.84
2018-04-13T08:42:02.952Z,971.88
2018-04-13T08:43:02.915Z,971.90
2018-04-13T08:44:02.871Z,971.87
2018-04-13T08:45:02.901Z,971.91
2018-04-13T08:46:02.847Z,971.93
2018-04-13T08:47:02.810Z,971.91
2018-04-13T08:48:02.744Z,971.95
2018-04-13T08:49:02.810Z,971.98
2018-04-13T08:50:02.710Z,971.93
2018-04-13T08:51:02.666Z,971.94
2018-04-13T08:52:02.668Z,972.00
2018-04-13T08:53:02.657Z,972.02
2018-04-13T08:54:02.604Z,971.98
2018-04-13T08:55:02.550Z,972.02
2018-04-13T08:56:02.494Z,972.00
2018-04-13T08:57:02.496Z,972.00
2018-04-13T08:58:02.468Z,971.99
2018-04-13T08:59:02.415Z,972.01
2018-04-13T09:00:02.401Z,971.95
2018-04-13T09:01:02.360Z,971.97
2018-04-13T09:02:02.285Z,971.99
2018-04-13T09:03:02.289Z,971.93
2018-04-13T09:04:02.234Z,971.90
2018-04-13T09:05:02.182Z,971.93
2018-04-13T09:06:02.180Z,971.89
2018-04-13T09:07:02.155Z,971.86
2018-04-13T09:08:02.107Z,971.87
2018-04-13T09:09:02.077Z,971.85
2018-04-13T09:10:02.037Z,971.81
2018-04-13T09:11:02.026Z,971.82
2018-04-13T09:12:01.969Z,971.82
2018-04-13T09:13:02.015Z,971.84
2018-04-13T09:14:01.911Z,971.86
2018-04-13T09:15:01.858Z,971.88
2018-04-13T09:16:01.837Z,971.88
2018-04-13T09:17:01.794Z,971.88
2018-04-13T09:18:01.748Z,971.94
2018-04-13T09:19:01.725Z,971.92
2018-04-13T09:20:01.694Z,971.93
2018-04-13T09:21:01.654Z,971.94
2018-04-13T09:22:01.640Z,971.92
2018-04-13T09:23:01.593Z,971.90
2018-04-13T09:24:01.549Z,971.91
2018-04-13T09:25:01.530Z,971.99
2018-04-13T09:26:01.489Z,971.94
2018-04-13T09:27:01.479Z,971.98
2018-04-13T09:28:01.737Z,971.99
2018-04-13T09:29:01.393Z,971.97
2018-04-13T09:30:01.356Z,971.98
2018-04-13T09:31:01.352Z,971.94
2018-04-13T09:32:01.283Z,971.95
2018-04-13T09:33:01.280Z,971.99
2018-04-13T09:34:01.229Z,971.97
2018-04-13T09:35:01.181Z,971.96
2018-04-13T09:36:01.154Z,971.97
2018-04-13T09:37:01.122Z,971.97
2018-04-13T09:38:02.823Z,971.99
2018-04-13T09:39:01.072Z,971.94
2018-04-13T09:40:01.055Z,971.98
2018-04-13T09:41:01.035Z,972.03
2018-04-13T09:42:00.947Z,972.02
2018-04-13T09:43:00.921Z,971.99
2018-04-13T09:44:00.887Z,972.04
2018-04-13T09:45:00.833Z,972.03
2018-04-13T09:46:00.807Z,972.04
2018-04-13T09:47:00.806Z,972.02
2018-04-13T09:48:00.786Z,972.04
2018-04-13T09:49:00.714Z,972.03
2018-04-13T09:50:00.700Z,972.02
2018-04-13T09:51:00.656Z,972.01
2018-04-13T09:52:00.635Z,972.01
2018-04-13T09:53:00.592Z,972.03
2018-04-13T09:54:00.573Z,972.05
2018-04-13T09:55:00.523Z,972.03
2018-04-13T09:56:00.500Z,972.06
2018-04-13T09:57:00.483Z,972.04
2018-04-13T09:58:00.422Z,972.06
2018-04-13T09:59:00.398Z,972.05
2018-04-13T10:00:00.388Z,972.03
2018-04-13T10:01:00.334Z,972.03
2018-04-13T10:02:00.308Z,972.05
2018-04-13T10:03:00.267Z,972.00
2018-04-13T10:04:00.247Z,972.02
2018-04-13T10:05:00.232Z,972.01
2018-04-13T10:06:00.194Z,972.01
2018-04-13T10:07:00.131Z,972.01
2018-04-13T10:08:00.133Z,972.03
2018-04-13T10:09:00.088Z,972.03
2018-04-13T10:10:00.041Z,972.04
2018-04-13T10:11:00.013Z,971.99
2018-04-13T10:11:59.980Z,972.03
2018-04-13T10:12:59.953Z,972.00
2018-04-13T10:13:59.958Z,971.97
2018-04-13T10:14:59.885Z,971.99
2018-04-13T10:15:59.862Z,971.99
2018-04-13T10:17:00.757Z,971.97
2018-04-13T10:17:59.788Z,971.96
2018-04-13T10:18:59.773Z,971.99
2018-04-13T10:19:59.729Z,971.97
2018-04-13T10:20:59.710Z,972.03
2018-04-13T10:21:59.680Z,972.09
2018-04-13T10:22:59.624Z,972.07
2018-04-13T10:23:59.592Z,972.08
2018-04-13T10:24:59.579Z,972.07
2018-04-13T10:25:59.548Z,972.08
2018-04-13T10:26:59.492Z,972.06
2018-04-13T10:27:59.478Z,972.09
2018-04-13T10:28:59.440Z,972.07
2018-04-13T10:29:59.419Z,972.13
2018-04-13T10:30:59.377Z,972.08
2018-04-13T10:31:59.344Z,972.11
2018-04-13T10:32:59.296Z,972.12
2018-04-13T10:33:59.349Z,972.17
2018-04-13T10:34:59.259Z,972.12
2018-04-13T10:35:59.232Z,972.21
2018-04-13T10:36:59.177Z,972.21
2018-04-13T10:37:59.194Z,972.27
2018-04-13T10:38:59.136Z,972.25
2018-04-13T10:39:59.094Z,972.28
2018-04-13T10:40:59.066Z,972.30
2018-04-13T10:41:59.030Z,972.27
2018-04-13T10:42:59.014Z,972.26
2018-04-13T10:43:58.983Z,972.27
2018-04-13T10:44:58.932Z,972.22
2018-04-13T10:45:58.918Z,972.26
2018-04-13T10:46:58.876Z,972.21
2018-04-13T10:47:58.872Z,972.22
2018-04-13T10:48:58.828Z,972.25
2018-04-13T10:49:58.799Z,972.22
2018-04-13T10:50:58.776Z,972.28
2018-04-13T10:51:58.741Z,972.27
2018-04-13T10:52:58.673Z,972.28
2018-04-13T10:53:58.676Z,972.29
2018-04-13T10:54:58.624Z,972.26
2018-04-13T10:55:58.591Z,972.32
2018-04-13T10:56:58.563Z,972.32
2018-04-13T10:57:58.518Z,972.35
2018-04-13T10:58:58.491Z,972.33
2018-04-13T10:59:58.451Z,972.36
2018-04-13T11:00:58.416Z,972.32
2018-04-13T11:01:58.392Z,972.34
2018-04-13T11:02:58.355Z,972.29
2018-04-13T11:03:58.341Z,972.31
2018-04-13T11:04:58.304Z,972.32
2018-04-13T11:05:58.263Z,972.34
2018-04-13T11:06:58.254Z,972.29
2018-04-13T11:07:58.224Z,972.34
2018-04-13T11:08:58.160Z,972.30
2018-04-13T11:09:58.141Z,972.30
2018-04-13T11:10:58.128Z,972.30
2018-04-13T11:11:58.045Z,972.29
2018-04-13T11:12:58.025Z,972.27
2018-04-13T11:13:57.992Z,972.29
2018-04-13T11:14:57.970Z,972.32
2018-04-13T11:15:57.939Z,972.30
2018-04-13T11:16:57.911Z,972.32
2018-04-13T11:17:57.880Z,972.36
2018-04-13T11:18:57.855Z,972.40
2018-04-13T11:19:57.802Z,972.36
2018-04-13T11:20:57.771Z,972.38
2018-04-13T11:21:57.771Z,972.37
2018-04-13T11:22:57.712Z,972.41
2018-04-13T11:23:57.675Z,972.39
2018-04-13T11:24:57.640Z,972.38
2018-04-13T11:25:57.618Z,972.40
2018-04-13T11:26:57.580Z,972.42
2018-04-13T11:27:57.540Z,972.45
2018-04-13T11:28:57.528Z,972.47
2018-04-13T11:29:57.502Z,972.49
2018-04-13T11:30:57.449Z,972.48
2018-04-13T11:31:57.423Z,972.48
2018-04-13T11:32:57.414Z,972.48
2018-04-13T11:33:57.384Z,972.48
2018-04-13T11:34:57.375Z,972.51
2018-04-13T11:35:57.294Z,972.49
2018-04-13T11:36:57.256Z,972.49
2018-04-13T11:37:57.259Z,972.50
2018-04-13T11:38:57.204Z,972.56
2018-04-13T11:39:57.173Z,972.56
2018-04-13T11:40:57.160Z,972.61
2018-04-13T11:41:57.120Z,972.59
2018-04-13T11:42:57.069Z,972.62
2018-04-13T11:43:57.066Z,972.63
2018-04-13T11:44:57.018Z,972.66
2018-04-13T11:45:57.006Z,972.66
2018-04-13T11:46:56.951Z,972.74
2018-04-13T11:47:56.946Z,972.71
2018-04-13T11:48:56.927Z,972.72
2018-04-13T11:49:56.871Z,972.76
2018-04-13T11:50:56.848Z,972.79
2018-04-13T11:51:56.800Z,972.77
2018-04-13T11:52:56.787Z,972.80
2018-04-13T11:53:56.740Z,972.80
2018-04-13T11:54:56.718Z,972.84
2018-04-13T11:55:56.691Z,972.84
2018-04-13T11:56:56.677Z,972.85
2018-04-13T11:57:56.604Z,972.84
2018-04-13T11:58:56.666Z,972.88
2018-04-13T11:59:56.572Z,972.95
2018-04-13T12:00:56.507Z,972.98
2018-04-13T12:01:56.496Z,972.98
2018-04-13T12:02:56.458Z,973.01
2018-04-13T12:03:56.453Z,973.01
2018-04-13T12:04:56.422Z,973.01
2018-04-13T12:05:56.357Z,972.99
2018-04-13T12:06:56.328Z,973.02
2018-04-13T12:07:56.296Z,973.09
2018-04-13T12:08:56.269Z,973.13
2018-04-13T12:09:56.230Z,973.11
2018-04-13T12:10:56.202Z,973.13
2018-04-13T12:11:56.189Z,973.23
2018-04-13T12:12:56.169Z,973.26
2018-04-13T12:13:56.114Z,973.28
2018-04-13T12:14:56.072Z,973.27
2018-04-13T12:15:56.043Z,973.24
2018-04-13T12:16:56.009Z,973.29
2018-04-13T12:17:55.969Z,973.38
2018-04-13T12:18:55.951Z,973.42
2018-04-13T12:19:55.924Z,973.39
2018-04-13T12:20:55.904Z,973.43
2018-04-13T12:21:55.869Z,973.32
2018-04-13T12:22:55.829Z,973.38
2018-04-13T12:23:55.799Z,973.36
2018-04-13T12:24:55.750Z,973.32
2018-04-13T12:25:55.738Z,973.26
2018-04-13T12:26:55.688Z,973.27
2018-04-13T12:27:55.681Z,973.30